createdAt,value
2022-08-11T00:00:07.986Z,26.51
2022-08-11T00:00:39.552Z,26.51
2022-08-11T00:01:10.985Z,26.51
2022-08-11T00:01:42.420Z,26.51
2022-08-11T00:02:15.395Z,26.51
2022-08-11T00:02:47.056Z,26.50
2022-08-11T00:03:18.606Z,26.50
2022-08-11T00:03:50.108Z,26.49
2022-08-11T00:04:21.708Z,26.48
2022-08-11T00:04:53.141Z,26.50
2022-08-11T00:05:24.720Z,26.48
2022-08-11T00:05:56.225Z,26.49
2022-08-11T00:06:27.652Z,26.48
2022-08-11T00:06:59.090Z,26.48
2022-08-11T00:07:30.520Z,26.46
2022-08-11T00:08:01.949Z,26.47
2022-08-11T00:08:33.381Z,26.47
2022-08-11T00:09:04.808Z,26.47
2022-08-11T00:09:39.185Z,26.47
2022-08-11T00:10:11.181Z,26.46
2022-08-11T00:10:42.627Z,26.45
2022-08-11T00:11:14.080Z,26.46
2022-08-11T00:11:45.503Z,26.45
2022-08-11T00:12:16.940Z,26.45
2022-08-11T00:12:48.364Z,26.45
2022-08-11T00:13:19.795Z,26.45
2022-08-11T00:13:51.225Z,26.44
2022-08-11T00:14:22.655Z,26.43
2022-08-11T00:14:54.084Z,26.45
2022-08-11T00:15:25.522Z,26.42
2022-08-11T00:15:56.947Z,26.42
2022-08-11T00:16:28.440Z,26.42
2022-08-11T00:16:59.874Z,26.42
2022-08-11T00:17:31.299Z,26.42
2022-08-11T00:18:02.729Z,26.41
2022-08-11T00:18:34.156Z,26.40
2022-08-11T00:19:05.626Z,26.41
2022-08-11T00:20:13.948Z,26.41
2022-08-11T00:20:28.482Z,26.38
2022-08-11T00:20:59.908Z,26.38
2022-08-11T00:22:03.219Z,26.38
2022-08-11T00:22:22.843Z,26.37
2022-08-11T00:22:54.273Z,26.37
2022-08-11T00:23:25.705Z,26.37
2022-08-11T00:23:57.136Z,26.36
2022-08-11T00:24:28.561Z,26.35
2022-08-11T00:25:03.552Z,26.35
2022-08-11T00:25:34.991Z,26.35
2022-08-11T00:26:06.419Z,26.35
2022-08-11T00:26:37.921Z,26.34
2022-08-11T00:27:09.368Z,26.33
2022-08-11T00:27:45.773Z,26.33
2022-08-11T00:28:17.204Z,26.32
2022-08-11T00:28:48.636Z,26.33
2022-08-11T00:29:20.065Z,26.32
2022-08-11T00:29:52.025Z,26.33
2022-08-11T00:30:23.478Z,26.33
2022-08-11T00:30:54.908Z,26.31
2022-08-11T00:31:26.340Z,26.32
2022-08-11T00:31:57.916Z,26.31
2022-08-11T00:32:29.344Z,26.31
2022-08-11T00:33:00.763Z,26.31
2022-08-11T00:33:44.904Z,26.31
2022-08-11T00:34:16.817Z,26.30
2022-08-11T00:34:48.248Z,26.30
2022-08-11T00:35:54.680Z,26.31
2022-08-11T00:36:11.088Z,26.28
2022-08-11T00:36:42.555Z,26.30
2022-08-11T00:37:14.024Z,26.30
2022-08-11T00:37:45.457Z,26.27
2022-08-11T00:38:16.886Z,26.27
2022-08-11T00:38:48.318Z,26.26
2022-08-11T00:39:19.811Z,26.25
2022-08-11T00:40:00.586Z,26.25
2022-08-11T00:40:32.054Z,26.26
2022-08-11T00:41:03.489Z,26.25
2022-08-11T00:41:34.915Z,26.25
2022-08-11T00:42:06.484Z,26.26
2022-08-11T00:42:38.044Z,26.25
2022-08-11T00:43:10.592Z,26.24
2022-08-11T00:43:42.276Z,26.23
2022-08-11T00:44:13.706Z,26.24
2022-08-11T00:44:45.142Z,26.24
2022-08-11T00:45:16.574Z,26.23
2022-08-11T00:45:47.995Z,26.22
2022-08-11T00:46:19.424Z,26.22
2022-08-11T00:46:50.857Z,26.22
2022-08-11T00:47:22.385Z,26.22
2022-08-11T00:47:53.812Z,26.21
2022-08-11T00:48:26.248Z,26.22
2022-08-11T00:48:57.690Z,26.21
2022-08-11T00:49:29.112Z,26.21
2022-08-11T00:50:00.550Z,26.21
2022-08-11T00:50:31.976Z,26.19
2022-08-11T00:51:03.404Z,26.20
2022-08-11T00:52:02.204Z,26.19
2022-08-11T00:52:26.290Z,26.18
2022-08-11T00:52:57.733Z,26.17
2022-08-11T00:53:29.164Z,26.17
2022-08-11T00:54:00.593Z,26.18
2022-08-11T00:54:33.095Z,26.17
2022-08-11T00:55:04.740Z,26.15
2022-08-11T00:55:36.164Z,26.14
2022-08-11T00:56:07.587Z,26.14
2022-08-11T00:56:39.024Z,26.14
2022-08-11T00:57:36.807Z,26.14
2022-08-11T00:58:01.978Z,26.12
2022-08-11T00:58:33.420Z,26.12
2022-08-11T00:59:06.349Z,26.14
2022-08-11T00:59:57.750Z,26.11
2022-08-11T01:00:29.185Z,26.11
2022-08-11T01:01:00.689Z,26.11
2022-08-11T01:01:32.245Z,26.10
2022-08-11T01:02:03.718Z,26.11
2022-08-11T01:02:35.150Z,26.10
2022-08-11T01:03:06.624Z,26.09
2022-08-11T01:03:38.050Z,26.09
2022-08-11T01:04:09.480Z,26.08
2022-08-11T01:04:40.906Z,26.08
2022-08-11T01:05:12.338Z,26.08
2022-08-11T01:05:43.765Z,26.09
2022-08-11T01:06:15.192Z,26.08
2022-08-11T01:06:46.669Z,26.07
2022-08-11T01:08:00.593Z,26.08
2022-08-11T01:08:09.530Z,26.06
2022-08-11T01:08:40.960Z,26.04
2022-08-11T01:09:18.850Z,26.05
2022-08-11T01:09:54.061Z,26.04
2022-08-11T01:10:25.552Z,26.04
2022-08-11T01:10:56.986Z,26.05
2022-08-11T01:11:28.428Z,26.04
2022-08-11T01:11:59.913Z,26.04
2022-08-11T01:12:31.357Z,26.02
2022-08-11T01:13:02.792Z,26.02
2022-08-11T01:13:39.912Z,26.02
2022-08-11T01:14:11.341Z,26.02
2022-08-11T01:14:42.768Z,26.01
2022-08-11T01:15:14.204Z,26.01
2022-08-11T01:15:55.989Z,26.01
2022-08-11T01:16:29.083Z,26.00
2022-08-11T01:17:00.558Z,26.01
2022-08-11T01:17:32.045Z,26.00
2022-08-11T01:18:03.478Z,26.01
2022-08-11T01:18:34.912Z,26.01
2022-08-11T01:19:06.344Z,26.00
2022-08-11T01:20:44.809Z,26.00
2022-08-11T01:20:44.846Z,26.00
2022-08-11T01:21:19.680Z,26.00
2022-08-11T01:21:51.112Z,26.00
2022-08-11T01:22:22.546Z,25.99
2022-08-11T01:22:54.036Z,25.98
2022-08-11T01:23:25.464Z,25.98
2022-08-11T01:23:56.890Z,25.99
2022-08-11T01:24:28.317Z,25.99
2022-08-11T01:24:59.755Z,25.98
2022-08-11T01:25:31.185Z,25.98
2022-08-11T01:26:02.622Z,25.98
2022-08-11T01:26:34.072Z,25.97
2022-08-11T01:27:05.501Z,25.97
2022-08-11T01:27:51.008Z,25.97
2022-08-11T01:28:22.441Z,25.97
2022-08-11T01:28:53.876Z,25.97
2022-08-11T01:29:28.433Z,25.96
2022-08-11T01:29:59.865Z,25.96
2022-08-11T01:30:31.296Z,25.96
2022-08-11T01:31:02.728Z,25.94
2022-08-11T01:31:34.156Z,25.94
2022-08-11T01:32:05.590Z,25.95
2022-08-11T01:32:37.147Z,25.94
2022-08-11T01:33:08.753Z,25.94
2022-08-11T01:33:40.176Z,25.92
2022-08-11T01:34:11.618Z,25.93
2022-08-11T01:34:43.066Z,25.94
2022-08-11T01:35:14.494Z,25.93
2022-08-11T01:35:45.920Z,25.92
2022-08-11T01:36:17.521Z,25.91
2022-08-11T01:36:53.566Z,25.91
2022-08-11T01:37:28.432Z,25.92
2022-08-11T01:37:59.973Z,25.92
2022-08-11T01:38:31.480Z,25.92
2022-08-11T01:39:02.908Z,25.92
2022-08-11T01:39:34.426Z,25.92
2022-08-11T01:40:05.900Z,25.90
2022-08-11T01:40:37.329Z,25.91
2022-08-11T01:41:08.806Z,25.91
2022-08-11T01:41:40.238Z,25.91
2022-08-11T01:42:13.022Z,25.91
2022-08-11T01:42:44.449Z,25.90
2022-08-11T01:43:15.893Z,25.90
2022-08-11T01:43:47.420Z,25.90
2022-08-11T01:44:18.856Z,25.89
2022-08-11T01:44:50.289Z,25.89
2022-08-11T01:45:21.721Z,25.89
2022-08-11T01:45:55.442Z,25.88
2022-08-11T01:46:26.889Z,25.87
2022-08-11T01:46:58.325Z,25.88
2022-08-11T01:47:29.765Z,25.87
2022-08-11T01:48:01.368Z,25.87
2022-08-11T01:48:32.807Z,25.87
2022-08-11T01:50:08.172Z,25.85
2022-08-11T01:50:08.402Z,25.86
2022-08-11T01:50:41.560Z,25.84
2022-08-11T01:51:17.086Z,25.85
2022-08-11T01:51:48.763Z,25.85
2022-08-11T01:52:20.192Z,25.84
2022-08-11T01:53:02.433Z,25.83
2022-08-11T01:53:33.865Z,25.83
2022-08-11T01:54:05.404Z,25.83
2022-08-11T01:54:36.840Z,25.83
2022-08-11T01:55:08.264Z,25.83
2022-08-11T01:55:39.687Z,25.82
2022-08-11T01:56:11.117Z,25.81
2022-08-11T01:56:42.548Z,25.80
2022-08-11T01:57:13.976Z,25.80
2022-08-11T01:57:45.399Z,25.82
2022-08-11T01:58:16.832Z,25.81
2022-08-11T01:58:48.251Z,25.81
2022-08-11T01:59:19.765Z,25.80
2022-08-11T01:59:51.187Z,25.80
2022-08-11T02:00:23.128Z,25.80
2022-08-11T02:00:54.602Z,25.81
2022-08-11T02:01:26.067Z,25.80
2022-08-11T02:01:57.496Z,25.79
2022-08-11T02:02:28.996Z,25.78
2022-08-11T02:03:00.458Z,25.78
2022-08-11T02:03:31.898Z,25.78
2022-08-11T02:04:06.796Z,25.78
2022-08-11T02:04:38.332Z,25.78
2022-08-11T02:05:09.759Z,25.77
2022-08-11T02:05:41.193Z,25.78
2022-08-11T02:06:12.624Z,25.76
2022-08-11T02:06:44.060Z,25.76
2022-08-11T02:07:15.485Z,25.75
2022-08-11T02:07:46.913Z,25.76
2022-08-11T02:08:18.397Z,25.76
2022-08-11T02:08:50.947Z,25.76
2022-08-11T02:09:22.452Z,25.74
2022-08-11T02:09:54.037Z,25.75
2022-08-11T02:10:35.098Z,25.75
2022-08-11T02:11:08.160Z,25.72
2022-08-11T02:11:44.180Z,25.72
2022-08-11T02:12:16.202Z,25.72
2022-08-11T02:12:52.288Z,25.72
2022-08-11T02:13:33.392Z,25.71
2022-08-11T02:14:07.898Z,25.71
2022-08-11T02:14:39.334Z,25.70
2022-08-11T02:15:10.795Z,25.69
2022-08-11T02:15:42.229Z,25.68
2022-08-11T02:16:13.668Z,25.69
2022-08-11T02:16:46.364Z,25.68
2022-08-11T02:17:17.796Z,25.68
2022-08-11T02:17:49.272Z,25.67
2022-08-11T02:18:23.016Z,25.67
2022-08-11T02:18:55.280Z,25.67
2022-08-11T02:19:26.709Z,25.67
2022-08-11T02:19:58.140Z,25.67
2022-08-11T02:20:29.628Z,25.65
2022-08-11T02:21:01.058Z,25.67
2022-08-11T02:21:32.493Z,25.66
2022-08-11T02:22:03.929Z,25.64
2022-08-11T02:22:36.655Z,25.65
2022-08-11T02:23:08.253Z,25.65
2022-08-11T02:24:07.077Z,25.64
2022-08-11T02:24:31.096Z,25.63
2022-08-11T02:25:02.537Z,25.64
2022-08-11T02:25:34.061Z,25.63
2022-08-11T02:26:05.492Z,25.62
2022-08-11T02:26:36.923Z,25.63
2022-08-11T02:27:08.361Z,25.62
2022-08-11T02:27:39.791Z,25.62
2022-08-11T02:28:11.221Z,25.61
2022-08-11T02:28:46.693Z,25.61
2022-08-11T02:29:18.276Z,25.62
2022-08-11T02:29:49.705Z,25.61
2022-08-11T02:30:21.131Z,25.61
2022-08-11T02:30:52.626Z,25.61
2022-08-11T02:32:15.881Z,25.61
2022-08-11T02:32:28.761Z,25.60
2022-08-11T02:33:06.876Z,25.59
2022-08-11T02:33:38.311Z,25.59
2022-08-11T02:34:09.744Z,25.60
2022-08-11T02:34:41.168Z,25.59
2022-08-11T02:35:12.625Z,25.60
2022-08-11T02:35:44.061Z,25.60
2022-08-11T02:36:15.592Z,25.59
2022-08-11T02:36:47.021Z,25.57
2022-08-11T02:37:23.506Z,25.57
2022-08-11T02:37:55.252Z,25.56
2022-08-11T02:38:26.675Z,25.57
2022-08-11T02:38:58.106Z,25.55
2022-08-11T02:39:29.585Z,25.55
2022-08-11T02:40:01.054Z,25.55
2022-08-11T02:40:32.506Z,25.55
2022-08-11T02:41:03.938Z,25.54
2022-08-11T02:41:35.396Z,25.53
2022-08-11T02:42:06.832Z,25.54
2022-08-11T02:42:58.245Z,25.53
2022-08-11T02:43:29.891Z,25.52
2022-08-11T02:44:01.325Z,25.51
2022-08-11T02:44:32.756Z,25.51
2022-08-11T02:45:04.224Z,25.49
2022-08-11T02:45:35.723Z,25.51
2022-08-11T02:46:07.180Z,25.50
2022-08-11T02:46:49.417Z,25.49
2022-08-11T02:47:20.844Z,25.50
2022-08-11T02:47:52.273Z,25.48
2022-08-11T02:48:23.705Z,25.49
2022-08-11T02:48:55.201Z,25.49
2022-08-11T02:49:26.637Z,25.47
2022-08-11T02:50:06.323Z,25.47
2022-08-11T02:50:39.346Z,25.48
2022-08-11T02:51:10.885Z,25.47
2022-08-11T02:51:42.317Z,25.47
2022-08-11T02:52:13.748Z,25.46
2022-08-11T02:52:45.177Z,25.47
2022-08-11T02:53:16.613Z,25.46
2022-08-11T02:53:54.447Z,25.44
2022-08-11T02:54:29.257Z,25.45
2022-08-11T02:55:00.689Z,25.43
2022-08-11T02:55:48.076Z,25.44
2022-08-11T02:56:23.583Z,25.45
2022-08-11T02:56:55.017Z,25.44
2022-08-11T02:57:26.448Z,25.45
2022-08-11T02:57:57.876Z,25.42
2022-08-11T02:58:29.321Z,25.43
2022-08-11T02:59:00.751Z,25.41
2022-08-11T02:59:32.186Z,25.41
2022-08-11T03:00:03.623Z,25.40
2022-08-11T03:00:35.049Z,25.40
2022-08-11T03:01:06.498Z,25.41
2022-08-11T03:01:38.009Z,25.39
2022-08-11T03:02:09.553Z,25.40
2022-08-11T03:02:41.231Z,25.40
2022-08-11T03:03:12.675Z,25.39
2022-08-11T03:03:45.606Z,25.38
2022-08-11T03:04:17.045Z,25.38
2022-08-11T03:04:48.476Z,25.39
2022-08-11T03:05:19.905Z,25.38
2022-08-11T03:05:52.960Z,25.38
2022-08-11T03:06:25.404Z,25.37
2022-08-11T03:06:56.845Z,25.36
2022-08-11T03:07:29.824Z,25.35
2022-08-11T03:08:01.364Z,25.35
2022-08-11T03:08:32.806Z,25.36
2022-08-11T03:09:04.245Z,25.36
2022-08-11T03:09:35.680Z,25.35
2022-08-11T03:10:07.109Z,25.35
2022-08-11T03:10:38.549Z,25.35
2022-08-11T03:11:09.983Z,25.34
2022-08-11T03:11:41.514Z,25.35
2022-08-11T03:12:12.948Z,25.35
2022-08-11T03:12:44.380Z,25.33
2022-08-11T03:13:15.853Z,25.34
2022-08-11T03:13:47.285Z,25.32
2022-08-11T03:14:18.708Z,25.32
2022-08-11T03:14:50.196Z,25.32
2022-08-11T03:15:21.624Z,25.32
2022-08-11T03:15:53.053Z,25.32
2022-08-11T03:16:24.483Z,25.32
2022-08-11T03:16:55.985Z,25.33
2022-08-11T03:17:28.234Z,25.33
2022-08-11T03:17:59.668Z,25.34
2022-08-11T03:18:31.091Z,25.33
2022-08-11T03:19:02.516Z,25.34
2022-08-11T03:19:33.951Z,25.31
2022-08-11T03:20:05.372Z,25.31
2022-08-11T03:20:38.217Z,25.29
2022-08-11T03:21:09.968Z,25.30
2022-08-11T03:22:01.367Z,25.30
2022-08-11T03:22:32.946Z,25.30
2022-08-11T03:23:04.469Z,25.26
2022-08-11T03:23:51.621Z,25.29
2022-08-11T03:24:23.052Z,25.29
2022-08-11T03:24:54.485Z,25.30
2022-08-11T03:25:25.913Z,25.29
2022-08-11T03:25:57.338Z,25.29
2022-08-11T03:26:28.897Z,25.28
2022-08-11T03:27:00.334Z,25.28
2022-08-11T03:27:31.896Z,25.27
2022-08-11T03:28:03.333Z,25.27
2022-08-11T03:28:34.776Z,25.27
2022-08-11T03:29:06.207Z,25.25
2022-08-11T03:29:37.798Z,25.25
2022-08-11T03:30:09.470Z,25.24
2022-08-11T03:30:40.899Z,25.23
2022-08-11T03:31:12.338Z,25.24
2022-08-11T03:31:44.670Z,25.24
2022-08-11T03:32:17.615Z,25.24
2022-08-11T03:32:49.112Z,25.24
2022-08-11T03:33:20.599Z,25.23
2022-08-11T03:33:52.041Z,25.22
2022-08-11T03:34:23.473Z,25.22
2022-08-11T03:34:54.905Z,25.22
2022-08-11T03:35:26.337Z,25.21
2022-08-11T03:35:57.781Z,25.22
2022-08-11T03:36:29.213Z,25.21
2022-08-11T03:37:16.679Z,25.22
2022-08-11T03:37:49.562Z,25.21
2022-08-11T03:38:21.008Z,25.21
2022-08-11T03:39:02.111Z,25.19
2022-08-11T03:39:33.572Z,25.19
2022-08-11T03:40:05.178Z,25.20
2022-08-11T03:40:36.674Z,25.20
2022-08-11T03:42:01.754Z,25.19
2022-08-11T03:42:04.350Z,25.19
2022-08-11T03:42:37.554Z,25.19
2022-08-11T03:43:09.165Z,25.19
2022-08-11T03:43:45.727Z,25.19
2022-08-11T03:44:29.571Z,25.19
2022-08-11T03:45:01.001Z,25.18
2022-08-11T03:45:33.238Z,25.18
2022-08-11T03:46:06.732Z,25.18
2022-08-11T03:46:38.169Z,25.17
2022-08-11T03:47:09.608Z,25.18
2022-08-11T03:47:41.036Z,25.18
2022-08-11T03:48:25.053Z,25.16
2022-08-11T03:48:56.483Z,25.17
2022-08-11T03:49:27.912Z,25.15
2022-08-11T03:49:59.344Z,25.17
2022-08-11T03:50:30.773Z,25.17
2022-08-11T03:51:02.206Z,25.17
2022-08-11T03:51:44.942Z,25.16
2022-08-11T03:52:23.754Z,25.15
2022-08-11T03:52:55.231Z,25.15
2022-08-11T03:53:26.727Z,25.14
2022-08-11T03:53:58.160Z,25.13
2022-08-11T03:54:29.591Z,25.12
2022-08-11T03:55:01.023Z,25.14
2022-08-11T03:55:32.484Z,25.11
2022-08-11T03:56:03.923Z,25.12
2022-08-11T03:56:35.358Z,25.12
2022-08-11T03:57:06.793Z,25.13
2022-08-11T03:57:38.225Z,25.10
2022-08-11T03:58:09.669Z,25.10
2022-08-11T03:58:42.005Z,25.10
2022-08-11T03:59:17.662Z,25.09
2022-08-11T03:59:49.093Z,25.10
2022-08-11T04:00:20.529Z,25.11
2022-08-11T04:00:51.957Z,25.10
2022-08-11T04:01:23.444Z,25.08
2022-08-11T04:01:54.972Z,25.10
2022-08-11T04:02:26.479Z,25.09
2022-08-11T04:02:57.916Z,25.09
2022-08-11T04:03:31.000Z,25.10
2022-08-11T04:04:03.019Z,25.09
2022-08-11T04:04:34.448Z,25.09
2022-08-11T04:05:05.881Z,25.08
2022-08-11T04:05:37.308Z,25.09
2022-08-11T04:06:08.741Z,25.09
2022-08-11T04:06:40.173Z,25.09
2022-08-11T04:07:11.605Z,25.10
2022-08-11T04:07:49.140Z,25.09
2022-08-11T04:08:20.574Z,25.08
2022-08-11T04:08:52.003Z,25.07
2022-08-11T04:09:23.653Z,25.08
2022-08-11T04:09:55.630Z,25.06
2022-08-11T04:10:28.140Z,25.05
2022-08-11T04:10:59.726Z,25.06
2022-08-11T04:11:31.256Z,25.05
2022-08-11T04:12:02.690Z,25.05
2022-08-11T04:12:36.659Z,25.05
2022-08-11T04:13:08.494Z,25.05
2022-08-11T04:13:39.925Z,25.03
2022-08-11T04:14:11.362Z,25.04
2022-08-11T04:14:42.823Z,25.04
2022-08-11T04:15:14.248Z,25.03
2022-08-11T04:15:45.677Z,25.03
2022-08-11T04:16:17.105Z,25.02
2022-08-11T04:16:48.545Z,25.03
2022-08-11T04:17:19.982Z,25.02
2022-08-11T04:17:54.416Z,25.02
2022-08-11T04:18:25.867Z,25.01
2022-08-11T04:18:57.305Z,25.02
2022-08-11T04:19:28.739Z,25.00
2022-08-11T04:20:00.268Z,25.00
2022-08-11T04:20:31.702Z,24.99
2022-08-11T04:21:03.135Z,25.00
2022-08-11T04:21:34.587Z,24.99
2022-08-11T04:22:06.012Z,25.00
2022-08-11T04:22:37.552Z,24.99
2022-08-11T04:23:09.117Z,24.99
2022-08-11T04:24:36.438Z,24.98
2022-08-11T04:24:38.701Z,24.98
2022-08-11T04:25:10.947Z,24.98
2022-08-11T04:25:54.558Z,24.97
2022-08-11T04:26:30.134Z,24.97
2022-08-11T04:27:05.660Z,24.96
2022-08-11T04:27:40.226Z,24.96
2022-08-11T04:28:28.358Z,24.96
2022-08-11T04:29:00.832Z,24.94
2022-08-11T04:29:36.410Z,24.96
2022-08-11T04:30:23.688Z,24.97
2022-08-11T04:30:58.284Z,24.97
2022-08-11T04:31:50.287Z,24.97
2022-08-11T04:32:22.482Z,24.98
2022-08-11T04:32:53.980Z,24.97
2022-08-11T04:33:25.409Z,24.98
2022-08-11T04:33:57.171Z,24.97
2022-08-11T04:34:28.640Z,24.95
2022-08-11T04:35:00.081Z,24.95
2022-08-11T04:35:31.590Z,24.94
2022-08-11T04:36:03.029Z,24.96
2022-08-11T04:36:34.461Z,24.97
2022-08-11T04:37:07.793Z,24.96
2022-08-11T04:37:39.223Z,24.95
2022-08-11T04:38:10.659Z,24.95
2022-08-11T04:38:42.097Z,24.94
2022-08-11T04:39:13.565Z,24.94
2022-08-11T04:39:45.138Z,24.95
2022-08-11T04:40:16.652Z,24.95
2022-08-11T04:40:48.121Z,24.94
2022-08-11T04:41:19.556Z,24.93
2022-08-11T04:41:51.022Z,24.94
2022-08-11T04:42:22.461Z,24.94
2022-08-11T04:42:53.889Z,24.93
2022-08-11T04:43:25.316Z,24.93
2022-08-11T04:44:05.827Z,24.94
2022-08-11T04:44:38.149Z,24.93
2022-08-11T04:45:09.577Z,24.93
2022-08-11T04:45:41.049Z,24.93
2022-08-11T04:46:12.608Z,24.93
2022-08-11T04:46:44.041Z,24.93
2022-08-11T04:47:15.465Z,24.93
2022-08-11T04:48:01.908Z,24.92
2022-08-11T04:48:35.967Z,24.92
2022-08-11T04:49:07.396Z,24.92
2022-08-11T04:49:38.817Z,24.92
2022-08-11T04:50:10.272Z,24.91
2022-08-11T04:50:41.701Z,24.94
2022-08-11T04:51:32.195Z,24.93
2022-08-11T04:52:03.619Z,24.91
2022-08-11T04:52:37.440Z,24.90
2022-08-11T04:53:09.577Z,24.91
2022-08-11T04:53:41.005Z,24.92
2022-08-11T04:54:12.434Z,24.93
2022-08-11T04:54:43.860Z,24.93
2022-08-11T04:55:15.287Z,24.93
2022-08-11T04:55:46.717Z,24.92
2022-08-11T04:56:18.141Z,24.92
2022-08-11T04:56:49.607Z,24.94
2022-08-11T04:57:21.046Z,24.93
2022-08-11T04:57:52.477Z,24.92
2022-08-11T04:58:30.022Z,24.92
2022-08-11T04:59:03.007Z,24.92
2022-08-11T04:59:34.455Z,24.93
2022-08-11T05:00:05.893Z,24.94
2022-08-11T05:00:37.320Z,24.92
2022-08-11T05:01:08.806Z,24.92
2022-08-11T05:01:40.322Z,24.93
2022-08-11T05:02:17.310Z,24.94
2022-08-11T05:02:49.293Z,24.92
2022-08-11T05:03:20.725Z,24.91
2022-08-11T05:03:52.160Z,24.93
2022-08-11T05:04:23.587Z,24.93
2022-08-11T05:04:55.024Z,24.93
2022-08-11T05:05:26.457Z,24.91
2022-08-11T05:05:57.901Z,24.92
2022-08-11T05:06:29.328Z,24.91
2022-08-11T05:07:00.748Z,24.93
2022-08-11T05:07:32.310Z,24.93
2022-08-11T05:08:03.746Z,24.93
2022-08-11T05:08:35.184Z,24.93
2022-08-11T05:09:06.616Z,24.93
2022-08-11T05:09:38.048Z,24.93
2022-08-11T05:10:09.470Z,24.92
2022-08-11T05:10:43.396Z,24.93
2022-08-11T05:11:14.960Z,24.93
2022-08-11T05:11:46.394Z,24.92
2022-08-11T05:12:17.844Z,24.93
2022-08-11T05:12:49.338Z,24.93
2022-08-11T05:13:20.773Z,24.92
2022-08-11T05:13:52.268Z,24.92
2022-08-11T05:14:23.701Z,24.93
2022-08-11T05:14:55.134Z,24.92
2022-08-11T05:15:26.563Z,24.92
2022-08-11T05:15:57.996Z,24.92
2022-08-11T05:16:29.425Z,24.93
2022-08-11T05:17:00.862Z,24.93
2022-08-11T05:17:32.294Z,24.92
2022-08-11T05:18:03.810Z,24.91
2022-08-11T05:18:35.582Z,24.92
2022-08-11T05:19:07.015Z,24.91
2022-08-11T05:19:38.446Z,24.92
2022-08-11T05:20:09.880Z,24.91
2022-08-11T05:20:41.308Z,24.91
2022-08-11T05:21:12.740Z,24.92
2022-08-11T05:21:44.609Z,24.93
2022-08-11T05:22:16.941Z,24.92
2022-08-11T05:22:48.381Z,24.93
2022-08-11T05:23:19.912Z,24.92
2022-08-11T05:23:51.344Z,24.91
2022-08-11T05:24:22.773Z,24.92
2022-08-11T05:24:54.205Z,24.92
2022-08-11T05:26:44.013Z,24.92
2022-08-11T05:26:47.117Z,24.92
2022-08-11T05:27:13.340Z,24.91
2022-08-11T05:27:45.296Z,24.91
2022-08-11T05:28:16.732Z,24.91
2022-08-11T05:28:48.196Z,24.91
2022-08-11T05:29:20.945Z,24.92
2022-08-11T05:29:52.577Z,24.91
2022-08-11T05:30:24.016Z,24.92
2022-08-11T05:30:55.673Z,24.91
2022-08-11T05:31:27.117Z,24.91
2022-08-11T05:31:58.549Z,24.92
2022-08-11T05:32:29.980Z,24.90
2022-08-11T05:33:02.448Z,24.90
2022-08-11T05:33:34.061Z,24.89
2022-08-11T05:34:05.567Z,24.90
2022-08-11T05:34:36.998Z,24.90
2022-08-11T05:35:08.425Z,24.89
2022-08-11T05:36:00.160Z,24.89
2022-08-11T05:36:31.268Z,24.91
2022-08-11T05:37:25.280Z,24.91
2022-08-11T05:37:54.112Z,24.91
2022-08-11T05:38:25.557Z,24.92
2022-08-11T05:38:56.988Z,24.92
2022-08-11T05:39:36.422Z,24.93
2022-08-11T05:40:08.564Z,24.93
2022-08-11T05:40:40.057Z,24.92
2022-08-11T05:41:11.544Z,24.93
2022-08-11T05:41:42.970Z,24.93
2022-08-11T05:42:29.506Z,24.94
2022-08-11T05:43:02.059Z,24.94
2022-08-11T05:43:33.483Z,24.93
2022-08-11T05:44:20.553Z,24.94
2022-08-11T05:44:53.515Z,24.93
2022-08-11T05:45:24.936Z,24.94
2022-08-11T05:46:02.383Z,24.94
2022-08-11T05:46:36.316Z,24.94
2022-08-11T05:47:07.745Z,24.94
2022-08-11T05:47:39.174Z,24.94
2022-08-11T05:48:10.607Z,24.95
2022-08-11T05:48:42.028Z,24.96
2022-08-11T05:49:13.465Z,24.96
2022-08-11T05:49:44.900Z,24.96
2022-08-11T05:50:16.385Z,24.96
2022-08-11T05:50:47.861Z,24.95
2022-08-11T05:51:30.059Z,24.96
2022-08-11T05:52:05.034Z,24.96
2022-08-11T05:52:44.051Z,24.96
2022-08-11T05:53:18.399Z,24.97
2022-08-11T05:53:49.832Z,24.97
2022-08-11T05:54:28.535Z,24.97
2022-08-11T05:55:06.957Z,24.97
2022-08-11T05:55:52.574Z,24.98
2022-08-11T05:56:30.252Z,24.99
2022-08-11T05:57:01.690Z,25.00
2022-08-11T05:57:49.710Z,25.00
2022-08-11T05:58:23.244Z,25.00
2022-08-11T05:58:54.682Z,25.02
2022-08-11T05:59:26.172Z,25.03
2022-08-11T05:59:57.597Z,25.03
2022-08-11T06:00:29.019Z,25.03
2022-08-11T06:01:00.488Z,25.04
2022-08-11T06:01:32.000Z,25.04
2022-08-11T06:02:03.581Z,25.05
2022-08-11T06:02:35.058Z,25.06
2022-08-11T06:03:06.484Z,25.05
2022-08-11T06:03:37.918Z,25.06
2022-08-11T06:04:09.352Z,25.07
2022-08-11T06:04:40.781Z,25.08
2022-08-11T06:05:12.214Z,25.08
2022-08-11T06:05:44.381Z,25.09
2022-08-11T06:06:15.852Z,25.08
2022-08-11T06:06:47.319Z,25.10
2022-08-11T06:07:18.752Z,25.10
2022-08-11T06:07:50.315Z,25.11
2022-08-11T06:08:21.875Z,25.11
2022-08-11T06:08:53.304Z,25.11
2022-08-11T06:09:24.736Z,25.12
2022-08-11T06:09:56.167Z,25.13
2022-08-11T06:10:27.591Z,25.14
2022-08-11T06:10:59.120Z,25.15
2022-08-11T06:11:43.499Z,25.15
2022-08-11T06:12:15.934Z,25.16
2022-08-11T06:12:47.366Z,25.17
2022-08-11T06:13:18.840Z,25.16
2022-08-11T06:13:50.273Z,25.17
2022-08-11T06:14:21.696Z,25.17
2022-08-11T06:14:53.128Z,25.18
2022-08-11T06:15:24.556Z,25.19
2022-08-11T06:15:55.994Z,25.19
2022-08-11T06:16:27.512Z,25.20
2022-08-11T06:16:58.945Z,25.20
2022-08-11T06:17:38.499Z,25.21
2022-08-11T06:18:10.800Z,25.21
2022-08-11T06:18:42.228Z,25.22
2022-08-11T06:19:13.657Z,25.22
2022-08-11T06:19:45.089Z,25.22
2022-08-11T06:20:16.525Z,25.23
2022-08-11T06:20:47.957Z,25.23
2022-08-11T06:21:20.887Z,25.23
2022-08-11T06:21:52.332Z,25.25
2022-08-11T06:22:25.264Z,25.25
2022-08-11T06:22:56.764Z,25.26
2022-08-11T06:23:28.265Z,25.26
2022-08-11T06:23:59.920Z,25.27
2022-08-11T06:24:32.063Z,25.27
2022-08-11T06:25:03.594Z,25.29
2022-08-11T06:25:35.315Z,25.29
2022-08-11T06:26:07.807Z,25.30
2022-08-11T06:26:55.072Z,25.30
2022-08-11T06:27:32.208Z,25.31
2022-08-11T06:28:03.927Z,25.32
2022-08-11T06:28:40.631Z,25.33
2022-08-11T06:29:13.106Z,25.33
2022-08-11T06:29:48.147Z,25.34
2022-08-11T06:30:26.299Z,25.36
2022-08-11T06:30:58.275Z,25.36
2022-08-11T06:31:29.973Z,25.36
2022-08-11T06:32:01.911Z,25.37
2022-08-11T06:32:33.879Z,25.38
2022-08-11T06:33:05.943Z,25.38
2022-08-11T06:33:37.921Z,25.40
2022-08-11T06:34:09.753Z,25.40
2022-08-11T06:34:42.047Z,25.41
2022-08-11T06:35:13.973Z,25.42
2022-08-11T06:35:45.991Z,25.42
2022-08-11T06:36:18.120Z,25.43
2022-08-11T06:36:50.342Z,25.44
2022-08-11T06:37:22.690Z,25.44
2022-08-11T06:37:58.930Z,25.45
2022-08-11T06:38:33.271Z,25.46
2022-08-11T06:39:05.801Z,25.46
2022-08-11T06:39:43.139Z,25.47
2022-08-11T06:40:15.305Z,25.48
2022-08-11T06:40:47.954Z,25.49
2022-08-11T06:41:20.283Z,25.49
2022-08-11T06:41:52.362Z,25.49
2022-08-11T06:42:23.803Z,25.50
2022-08-11T06:42:55.502Z,25.51
2022-08-11T06:43:27.397Z,25.52
2022-08-11T06:44:04.673Z,25.53
2022-08-11T06:44:37.222Z,25.53
2022-08-11T06:45:09.935Z,25.54
2022-08-11T06:45:41.720Z,25.55
2022-08-11T06:46:13.501Z,25.55
2022-08-11T06:47:00.264Z,25.57
2022-08-11T06:47:32.031Z,25.57
2022-08-11T06:48:03.894Z,25.58
2022-08-11T06:48:35.681Z,25.58
2022-08-11T06:49:07.332Z,25.60
2022-08-11T06:49:39.104Z,25.61
2022-08-11T06:50:10.683Z,25.61
2022-08-11T06:50:42.306Z,25.62
2022-08-11T06:51:13.917Z,25.62
2022-08-11T06:51:45.348Z,25.63
2022-08-11T06:52:34.663Z,25.63
2022-08-11T06:53:06.868Z,25.64
2022-08-11T06:53:38.297Z,25.63
2022-08-11T06:54:09.720Z,25.65
2022-08-11T06:54:41.294Z,25.66
2022-08-11T06:55:55.847Z,25.67
2022-08-11T06:56:04.160Z,25.67
2022-08-11T06:56:35.724Z,25.68
2022-08-11T06:57:29.033Z,25.69
2022-08-11T06:57:58.586Z,25.69
2022-08-11T06:58:30.015Z,25.71
2022-08-11T06:59:03.374Z,25.72
2022-08-11T06:59:37.241Z,25.72
2022-08-11T07:00:10.064Z,25.73
2022-08-11T07:00:41.493Z,25.75
2022-08-11T07:01:12.963Z,25.75
2022-08-11T07:01:44.478Z,25.76
2022-08-11T07:02:17.854Z,25.76
2022-08-11T07:02:49.285Z,25.77
2022-08-11T07:03:20.716Z,25.78
2022-08-11T07:03:52.153Z,25.78
2022-08-11T07:04:23.596Z,25.76
2022-08-11T07:04:55.126Z,25.78
2022-08-11T07:05:26.594Z,25.80
2022-08-11T07:05:58.032Z,25.81